sensor_id;sensor_type;location;lat;lon;timestamp;pressure;altitude;pressure_sealevel;temperature;humidity
75146;BME280;63641;46.526;24.612;2023-02-28T00:01:13;98043.53;;;2.25;75.93
75146;BME280;63641;46.526;24.612;2023-02-28T00:03:40;98057.69;;;2.32;75.84
75146;BME280;63641;46.526;24.612;2023-02-28T00:06:08;98067.13;;;2.35;75.76
75146;BME280;63641;46.526;24.612;2023-02-28T00:08:36;98066.31;;;2.34;75.54
75146;BME280;63641;46.526;24.612;2023-02-28T00:11:13;98075.34;;;2.33;75.66
75146;BME280;63641;46.526;24.612;2023-02-28T00:13:43;98079.66;;;2.34;75.76
75146;BME280;63641;46.526;24.612;2023-02-28T00:16:19;98077.78;;;2.41;75.61
75146;BME280;63641;46.526;24.612;2023-02-28T00:18:46;98080.84;;;2.45;75.73
75146;BME280;63641;46.526;24.612;2023-02-28T00:21:17;98076.75;;;2.42;75.54
75146;BME280;63641;46.526;24.612;2023-02-28T00:23:44;98081.25;;;2.49;75.58
75146;BME280;63641;46.526;24.612;2023-02-28T00:26:12;98082.91;;;2.50;75.71
75146;BME280;63641;46.526;24.612;2023-02-28T00:28:38;98085.56;;;2.50;75.74
75146;BME280;63641;46.526;24.612;2023-02-28T00:31:05;98080.63;;;2.53;75.73
75146;BME280;63641;46.526;24.612;2023-02-28T00:33:32;98070.97;;;2.52;75.65
75146;BME280;63641;46.526;24.612;2023-02-28T00:36:08;98083.50;;;2.58;75.57
75146;BME280;63641;46.526;24.612;2023-02-28T00:38:37;98079.78;;;2.59;75.64
75146;BME280;63641;46.526;24.612;2023-02-28T00:41:04;98075.66;;;2.63;75.51
75146;BME280;63641;46.526;24.612;2023-02-28T00:43:36;98072.00;;;2.58;75.40
75146;BME280;63641;46.526;24.612;2023-02-28T00:46:03;98066.25;;;2.54;75.68
75146;BME280;63641;46.526;24.612;2023-02-28T00:48:30;98074.06;;;2.49;75.70
75146;BME280;63641;46.526;24.612;2023-02-28T00:50:57;98071.63;;;2.41;75.90
75146;BME280;63641;46.526;24.612;2023-02-28T00:53:25;98063.63;;;2.34;75.92
75146;BME280;63641;46.526;24.612;2023-02-28T00:55:51;98082.72;;;2.38;75.79
75146;BME280;63641;46.526;24.612;2023-02-28T00:58:18;98094.22;;;2.38;75.80
75146;BME280;63641;46.526;24.612;2023-02-28T01:00:46;98092.59;;;2.37;75.94
75146;BME280;63641;46.526;24.612;2023-02-28T01:03:17;98082.56;;;2.33;76.14
75146;BME280;63641;46.526;24.612;2023-02-28T01:05:44;98093.22;;;2.39;75.93
75146;BME280;63641;46.526;24.612;2023-02-28T01:08:12;98089.09;;;2.37;76.14
75146;BME280;63641;46.526;24.612;2023-02-28T01:10:38;98097.31;;;2.42;76.09
75146;BME280;63641;46.526;24.612;2023-02-28T01:13:05;98097.69;;;2.46;76.08
75146;BME280;63641;46.526;24.612;2023-02-28T01:15:32;98101.19;;;2.46;75.75
75146;BME280;63641;46.526;24.612;2023-02-28T01:17:59;98098.31;;;2.48;75.80
75146;BME280;63641;46.526;24.612;2023-02-28T01:20:26;98095.84;;;2.46;75.91
75146;BME280;63641;46.526;24.612;2023-02-28T01:22:53;98107.56;;;2.52;75.71
75146;BME280;63641;46.526;24.612;2023-02-28T01:25:20;98096.06;;;2.51;75.55
75146;BME280;63641;46.526;24.612;2023-02-28T01:27:46;98104.66;;;2.53;75.82
75146;BME280;63641;46.526;24.612;2023-02-28T01:30:13;98103.25;;;2.51;75.88
75146;BME280;63641;46.526;24.612;2023-02-28T01:32:40;98089.06;;;2.50;75.60
75146;BME280;63641;46.526;24.612;2023-02-28T01:35:07;98082.72;;;2.45;75.71
75146;BME280;63641;46.526;24.612;2023-02-28T01:37:34;98083.78;;;2.30;75.66
75146;BME280;63641;46.526;24.612;2023-02-28T01:40:01;98083.78;;;2.24;76.21
75146;BME280;63641;46.526;24.612;2023-02-28T01:42:27;98080.72;;;2.13;76.51
75146;BME280;63641;46.526;24.612;2023-02-28T01:45:19;98091.22;;;2.08;76.18
75146;BME280;63641;46.526;24.612;2023-02-28T01:47:50;98078.28;;;1.99;76.88
75146;BME280;63641;46.526;24.612;2023-02-28T01:50:21;98082.00;;;1.98;76.64
75146;BME280;63641;46.526;24.612;2023-02-28T01:52:50;98083.44;;;1.93;76.54
75146;BME280;63641;46.526;24.612;2023-02-28T01:55:18;98090.63;;;1.93;76.78
75146;BME280;63641;46.526;24.612;2023-02-28T01:57:50;98092.25;;;1.94;76.93
75146;BME280;63641;46.526;24.612;2023-02-28T02:00:20;98083.03;;;1.97;76.60
75146;BME280;63641;46.526;24.612;2023-02-28T02:02:51;98082.00;;;1.98;76.58
75146;BME280;63641;46.526;24.612;2023-02-28T02:05:24;98096.16;;;2.05;76.52
75146;BME280;63641;46.526;24.612;2023-02-28T02:07:54;98090.41;;;2.08;76.52
75146;BME280;63641;46.526;24.612;2023-02-28T02:10:41;98085.47;;;2.11;76.43
75146;BME280;63641;46.526;24.612;2023-02-28T02:27:59;98102.50;;;2.17;76.43
75146;BME280;63641;46.526;24.612;2023-02-28T02:36:47;98091.84;;;2.10;76.50
75146;BME280;63641;46.526;24.612;2023-02-28T02:42:15;98104.56;;;2.22;76.78
75146;BME280;63641;46.526;24.612;2023-02-28T02:44:44;98100.44;;;2.26;76.60
75146;BME280;63641;46.526;24.612;2023-02-28T02:47:16;98101.03;;;2.28;76.32
75146;BME280;63641;46.526;24.612;2023-02-28T02:49:49;98103.09;;;2.26;76.32
75146;BME280;63641;46.526;24.612;2023-02-28T02:52:20;98106.19;;;2.23;76.49
75146;BME280;63641;46.526;24.612;2023-02-28T02:54:49;98105.97;;;2.24;76.93
75146;BME280;63641;46.526;24.612;2023-02-28T02:57:30;98107.41;;;2.27;76.69
75146;BME280;63641;46.526;24.612;2023-02-28T03:00:00;98113.97;;;2.31;76.36
75146;BME280;63641;46.526;24.612;2023-02-28T03:02:29;98108.22;;;2.34;76.56
75146;BME280;63641;46.526;24.612;2023-02-28T03:05:04;98107.81;;;2.37;76.47
75146;BME280;63641;46.526;24.612;2023-02-28T03:07:33;98117.44;;;2.38;76.68
75146;BME280;63641;46.526;24.612;2023-02-28T03:10:00;98108.84;;;2.36;76.62
75146;BME280;63641;46.526;24.612;2023-02-28T03:15:32;98109.03;;;2.41;76.75
75146;BME280;63641;46.526;24.612;2023-02-28T03:18:32;98105.31;;;2.42;76.97
75146;BME280;63641;46.526;24.612;2023-02-28T03:26:29;98115.00;;;2.43;77.05
75146;BME280;63641;46.526;24.612;2023-02-28T03:32:08;98110.41;;;2.50;76.88
75146;BME280;63641;46.526;24.612;2023-02-28T03:34:58;98110.66;;;2.49;77.02
75146;BME280;63641;46.526;24.612;2023-02-28T03:37:31;98115.16;;;2.55;76.92
75146;BME280;63641;46.526;24.612;2023-02-28T03:40:17;98114.94;;;2.56;76.75
75146;BME280;63641;46.526;24.612;2023-02-28T03:42:48;98114.75;;;2.58;77.03
75146;BME280;63641;46.526;24.612;2023-02-28T03:45:21;98114.94;;;2.56;76.78
75146;BME280;63641;46.526;24.612;2023-02-28T03:48:01;98115.34;;;2.53;76.93
75146;BME280;63641;46.526;24.612;2023-02-28T03:50:40;98111.47;;;2.49;77.05
75146;BME280;63641;46.526;24.612;2023-02-28T03:53:12;98120.69;;;2.53;77.05
75146;BME280;63641;46.526;24.612;2023-02-28T03:55:43;98118.44;;;2.50;77.02
75146;BME280;63641;46.526;24.612;2023-02-28T04:00:46;98111.66;;;2.54;76.99
75146;BME280;63641;46.526;24.612;2023-02-28T04:03:14;98120.69;;;2.53;77.02
75146;BME280;63641;46.526;24.612;2023-02-28T04:05:51;98131.78;;;2.57;77.12
75146;BME280;63641;46.526;24.612;2023-02-28T04:08:18;98134.44;;;2.57;76.97
75146;BME280;63641;46.526;24.612;2023-02-28T04:10:52;98142.06;;;2.53;77.15
75146;BME280;63641;46.526;24.612;2023-02-28T04:13:20;98139.38;;;2.53;77.32
75146;BME280;63641;46.526;24.612;2023-02-28T04:15:47;98128.31;;;2.50;77.10
75146;BME280;63641;46.526;24.612;2023-02-28T04:18:14;98126.03;;;2.53;77.23
75146;BME280;63641;46.526;24.612;2023-02-28T04:20:40;98127.06;;;2.52;77.69
75146;BME280;63641;46.526;24.612;2023-02-28T04:23:07;98133.44;;;2.58;77.16
75146;BME280;63641;46.526;24.612;2023-02-28T04:25:34;98119.25;;;2.57;77.24
75146;BME280;63641;46.526;24.612;2023-02-28T04:28:00;98109.00;;;2.48;77.24
75146;BME280;63641;46.526;24.612;2023-02-28T04:30:27;98114.94;;;2.50;77.75
75146;BME280;63641;46.526;24.612;2023-02-28T04:32:55;98110.66;;;2.49;77.77
75146;BME280;63641;46.526;24.612;2023-02-28T04:35:22;98117.22;;;2.46;77.65
75146;BME280;63641;46.526;24.612;2023-02-28T04:37:49;98111.88;;;2.46;77.61
75146;BME280;63641;46.526;24.612;2023-02-28T04:40:16;98111.69;;;2.48;77.71
75146;BME280;63641;46.526;24.612;2023-02-28T04:42:43;98103.66;;;2.48;77.92
75146;BME280;63641;46.526;24.612;2023-02-28T04:45:10;98112.69;;;2.53;77.64
75146;BME280;63641;46.526;24.612;2023-02-28T04:47:36;98094.19;;;2.52;77.51
75146;BME280;63641;46.526;24.612;2023-02-28T04:50:03;98092.34;;;2.52;77.70
75146;BME280;63641;46.526;24.612;2023-02-28T04:52:30;98104.88;;;2.52;77.54
75146;BME280;63641;46.526;24.612;2023-02-28T04:54:57;98108.16;;;2.54;77.54
75146;BME280;63641;46.526;24.612;2023-02-28T04:57:23;98113.06;;;2.57;77.68
75146;BME280;63641;46.526;24.612;2023-02-28T04:59:50;98104.25;;;2.56;77.69
75146;BME280;63641;46.526;24.612;2023-02-28T05:02:17;98091.31;;;2.53;77.59
75146;BME280;63641;46.526;24.612;2023-02-28T05:04:43;98099.53;;;2.58;77.46
75146;BME280;63641;46.526;24.612;2023-02-28T05:07:10;98106.09;;;2.56;77.84
75146;BME280;63641;46.526;24.612;2023-02-28T05:09:37;98110.63;;;2.55;77.85
75146;BME280;63641;46.526;24.612;2023-02-28T05:12:04;98122.75;;;2.58;77.80
75146;BME280;63641;46.526;24.612;2023-02-28T05:14:30;98105.88;;;2.57;77.76
75146;BME280;63641;46.526;24.612;2023-02-28T05:16:57;98114.69;;;2.64;77.75
75146;BME280;63641;46.526;24.612;2023-02-28T05:19:24;98116.78;;;2.62;77.60
75146;BME280;63641;46.526;24.612;2023-02-28T05:21:53;98124.38;;;2.65;77.71
75146;BME280;63641;46.526;24.612;2023-02-28T05:24:20;98119.84;;;2.66;77.61
75146;BME280;63641;46.526;24.612;2023-02-28T05:27:03;98135.88;;;2.73;77.74
75146;BME280;63641;46.526;24.612;2023-02-28T05:29:30;98134.19;;;2.72;77.31
75146;BME280;63641;46.526;24.612;2023-02-28T05:31:56;98136.25;;;2.76;77.51
75146;BME280;63641;46.526;24.612;2023-02-28T05:34:23;98129.06;;;2.77;77.53
75146;BME280;63641;46.526;24.612;2023-02-28T05:36:50;98142.03;;;2.73;77.47
75146;BME280;63641;46.526;24.612;2023-02-28T05:39:16;98150.44;;;2.77;77.42
75146;BME280;63641;46.526;24.612;2023-02-28T05:41:43;98157.59;;;2.83;77.54
75146;BME280;63641;46.526;24.612;2023-02-28T05:44:11;98156.59;;;2.84;77.63
75146;BME280;63641;46.526;24.612;2023-02-28T05:46:38;98158.22;;;2.85;77.65
75146;BME280;63641;46.526;24.612;2023-02-28T05:49:05;98148.97;;;2.81;77.35
75146;BME280;63641;46.526;24.612;2023-02-28T05:51:32;98154.91;;;2.83;77.63
75146;BME280;63641;46.526;24.612;2023-02-28T05:54:01;98159.84;;;2.86;77.47
75146;BME280;63641;46.526;24.612;2023-02-28T05:56:28;98159.03;;;2.92;77.56
75146;BME280;63641;46.526;24.612;2023-02-28T05:58:55;98146.28;;;2.87;77.44
75146;BME280;63641;46.526;24.612;2023-02-28T06:01:34;98154.88;;;2.96;77.23
75146;BME280;63641;46.526;24.612;2023-02-28T06:04:03;98163.50;;;2.98;77.22
75146;BME280;63641;46.526;24.612;2023-02-28T06:06:30;98163.31;;;3.00;77.19
75146;BME280;63641;46.526;24.612;2023-02-28T06:08:57;98161.22;;;3.02;77.29
75146;BME280;63641;46.526;24.612;2023-02-28T06:11:24;98168.66;;;3.00;77.57
75146;BME280;63641;46.526;24.612;2023-02-28T06:13:56;98159.78;;;3.06;77.40
75146;BME280;63641;46.526;24.612;2023-02-28T06:16:24;98156.06;;;3.07;77.15
75146;BME280;63641;46.526;24.612;2023-02-28T06:18:52;98154.84;;;3.09;77.26
75146;BME280;63641;46.526;24.612;2023-02-28T06:21:19;98163.44;;;3.18;77.38
75146;BME280;63641;46.526;24.612;2023-02-28T06:23:45;98163.59;;;3.23;77.06
75146;BME280;63641;46.526;24.612;2023-02-28T06:26:12;98164.59;;;3.29;77.01
75146;BME280;63641;46.526;24.612;2023-02-28T06:28:39;98159.84;;;3.31;76.80
75146;BME280;63641;46.526;24.612;2023-02-28T06:31:08;98164.97;;;3.39;76.99
75146;BME280;63641;46.526;24.612;2023-02-28T06:33:36;98166.19;;;3.43;76.90
75146;BME280;63641;46.526;24.612;2023-02-28T06:36:04;98174.22;;;3.43;76.82
75146;BME280;63641;46.526;24.612;2023-02-28T06:38:32;98171.53;;;3.43;76.82
75146;BME280;63641;46.526;24.612;2023-02-28T06:41:00;98165.97;;;3.38;76.92
75146;BME280;63641;46.526;24.612;2023-02-28T06:43:29;98160.44;;;3.39;76.87
75146;BME280;63641;46.526;24.612;2023-02-28T06:45:58;98180.78;;;3.47;76.94
75146;BME280;63641;46.526;24.612;2023-02-28T06:48:26;98171.69;;;3.48;76.65
75146;BME280;63641;46.526;24.612;2023-02-28T06:51:25;98175.00;;;3.50;76.68
75146;BME280;63641;46.526;24.612;2023-02-28T06:53:49;98177.44;;;3.52;76.58
75146;BME280;63641;46.526;24.612;2023-02-28T06:56:18;98178.66;;;3.56;76.97
75146;BME280;63641;46.526;24.612;2023-02-28T06:58:48;98175.78;;;3.57;76.59
75146;BME280;63641;46.526;24.612;2023-02-28T07:01:16;98181.72;;;3.59;76.46
75146;BME280;63641;46.526;24.612;2023-02-28T07:03:43;98188.69;;;3.60;76.72
75146;BME280;63641;46.526;24.612;2023-02-28T07:06:10;98188.28;;;3.63;76.52
75146;BME280;63641;46.526;24.612;2023-02-28T07:08:37;98185.41;;;3.65;76.68
75146;BME280;63641;46.526;24.612;2023-02-28T07:11:04;98183.53;;;3.66;76.49
75146;BME280;63641;46.526;24.612;2023-02-28T07:13:31;98169.94;;;3.67;76.69
75146;BME280;63641;46.526;24.612;2023-02-28T07:16:04;98182.84;;;3.77;76.54
75146;BME280;63641;46.526;24.612;2023-02-28T07:18:31;98177.50;;;3.77;76.76
75146;BME280;63641;46.526;24.612;2023-02-28T07:20:58;98181.16;;;3.82;76.51
75146;BME280;63641;46.526;24.612;2023-02-28T07:23:25;98181.16;;;3.82;76.56
75146;BME280;63641;46.526;24.612;2023-02-28T07:25:52;98183.59;;;3.91;76.33
75146;BME280;63641;46.526;24.612;2023-02-28T07:28:18;98180.25;;;3.95;76.15
75146;BME280;63641;46.526;24.612;2023-02-28T07:30:45;98181.69;;;3.98;76.06
75146;BME280;63641;46.526;24.612;2023-02-28T07:33:12;98179.34;;;4.01;76.06
75146;BME280;63641;46.526;24.612;2023-02-28T07:35:39;98191.03;;;4.14;75.95
75146;BME280;63641;46.526;24.612;2023-02-28T07:38:06;98184.63;;;4.15;75.97
75146;BME280;63641;46.526;24.612;2023-02-28T07:40:36;98181.44;;;4.24;75.55
75146;BME280;63641;46.526;24.612;2023-02-28T07:43:03;98190.25;;;4.31;75.44
75146;BME280;63641;46.526;24.612;2023-02-28T07:45:30;98181.56;;;4.36;75.46
75146;BME280;63641;46.526;24.612;2023-02-28T07:47:58;98176.50;;;4.46;75.36
75146;BME280;63641;46.526;24.612;2023-02-28T07:50:25;98180.16;;;4.52;75.04
75146;BME280;63641;46.526;24.612;2023-02-28T07:52:56;98168.63;;;4.51;75.20
75146;BME280;63641;46.526;24.612;2023-02-28T07:55:23;98169.00;;;4.55;74.98
75146;BME280;63641;46.526;24.612;2023-02-28T07:57:50;98178.91;;;4.73;75.09
75146;BME280;63641;46.526;24.612;2023-02-28T08:00:17;98177.38;;;4.83;74.86
75146;BME280;63641;46.526;24.612;2023-02-28T08:02:44;98185.16;;;5.03;74.54
75146;BME280;63641;46.526;24.612;2023-02-28T08:05:11;98174.88;;;5.19;74.32
75146;BME280;63641;46.526;24.612;2023-02-28T08:07:38;98165.97;;;5.37;74.05
75146;BME280;63641;46.526;24.612;2023-02-28T08:10:06;98182.31;;;5.65;73.75
75146;BME280;63641;46.526;24.612;2023-02-28T08:12:33;98181.44;;;5.83;73.40
75146;BME280;63641;46.526;24.612;2023-02-28T08:15:00;98189.16;;;5.91;73.39
75146;BME280;63641;46.526;24.612;2023-02-28T08:17:27;98181.97;;;6.03;73.12
75146;BME280;63641;46.526;24.612;2023-02-28T08:19:55;98178.97;;;6.12;72.91
75146;BME280;63641;46.526;24.612;2023-02-28T08:22:21;98177.00;;;6.31;72.58
75146;BME280;63641;46.526;24.612;2023-02-28T08:24:48;98185.66;;;6.44;72.52
75146;BME280;63641;46.526;24.612;2023-02-28T08:27:15;98178.63;;;6.55;72.20
75146;BME280;63641;46.526;24.612;2023-02-28T08:29:42;98175.94;;;6.67;71.76
75146;BME280;63641;46.526;24.612;2023-02-28T08:32:09;98177.31;;;6.69;71.92
75146;BME280;63641;46.526;24.612;2023-02-28T08:34:54;98180.47;;;6.66;71.69
75146;BME280;63641;46.526;24.612;2023-02-28T08:37:21;98184.59;;;6.69;71.52
75146;BME280;63641;46.526;24.612;2023-02-28T08:39:47;98171.03;;;6.64;71.41
75146;BME280;63641;46.526;24.612;2023-02-28T08:42:14;98177.69;;;6.73;71.39
75146;BME280;63641;46.526;24.612;2023-02-28T08:44:40;98175.00;;;6.73;71.22
75146;BME280;63641;46.526;24.612;2023-02-28T08:47:07;98173.25;;;6.78;71.03
75146;BME280;63641;46.526;24.612;2023-02-28T08:49:34;98176.84;;;6.84;71.12
75146;BME280;63641;46.526;24.612;2023-02-28T08:52:01;98176.50;;;6.92;71.05
75146;BME280;63641;46.526;24.612;2023-02-28T08:54:28;98184.19;;;7.00;70.89
75146;BME280;63641;46.526;24.612;2023-02-28T08:56:57;98184.66;;;6.97;70.32
75146;BME280;63641;46.526;24.612;2023-02-28T08:59:24;98173.56;;;6.94;70.43
75146;BME280;63641;46.526;24.612;2023-02-28T09:01:51;98178.69;;;6.95;70.10
75146;BME280;63641;46.526;24.612;2023-02-28T09:04:18;98192.28;;;7.00;70.09
75146;BME280;63641;46.526;24.612;2023-02-28T09:06:46;98188.28;;;7.03;69.86
75146;BME280;63641;46.526;24.612;2023-02-28T09:09:15;98188.41;;;7.08;69.72
75146;BME280;63641;46.526;24.612;2023-02-28T09:11:42;98186.25;;;7.22;69.41
75146;BME280;63641;46.526;24.612;2023-02-28T09:14:09;98184.81;;;7.31;69.10
75146;BME280;63641;46.526;24.612;2023-02-28T09:16:36;98178.97;;;7.34;68.92
75146;BME280;63641;46.526;24.612;2023-02-28T09:19:04;98183.16;;;7.42;68.76
75146;BME280;63641;46.526;24.612;2023-02-28T09:21:30;98178.44;;;7.49;68.42
75146;BME280;63641;46.526;24.612;2023-02-28T09:23:57;98181.34;;;7.59;68.32
75146;BME280;63641;46.526;24.612;2023-02-28T09:26:26;98182.22;;;7.65;67.98
75146;BME280;63641;46.526;24.612;2023-02-28T09:29:04;98184.53;;;7.73;67.84
75146;BME280;63641;46.526;24.612;2023-02-28T09:31:31;98187.00;;;7.74;67.56
75146;BME280;63641;46.526;24.612;2023-02-28T09:33:58;98175.81;;;7.66;67.24
75146;BME280;63641;46.526;24.612;2023-02-28T09:36:26;98170.03;;;7.74;67.17
75146;BME280;63641;46.526;24.612;2023-02-28T09:39:08;98170.84;;;7.74;67.20
75146;BME280;63641;46.526;24.612;2023-02-28T09:41:42;98181.88;;;7.90;67.01
75146;BME280;63641;46.526;24.612;2023-02-28T09:44:31;98174.78;;;8.01;66.66
75146;BME280;63641;46.526;24.612;2023-02-28T09:47:27;98177.06;;;8.09;66.75
75146;BME280;63641;46.526;24.612;2023-02-28T09:49:59;98171.03;;;8.18;66.69
75146;BME280;63641;46.526;24.612;2023-02-28T09:52:31;98176.28;;;8.25;66.55
75146;BME280;63641;46.526;24.612;2023-02-28T09:57:42;98159.59;;;8.28;66.19
75146;BME280;63641;46.526;24.612;2023-02-28T10:05:41;98161.78;;;8.31;66.08
75146;BME280;63641;46.526;24.612;2023-02-28T10:08:29;98154.78;;;8.30;65.99
75146;BME280;63641;46.526;24.612;2023-02-28T10:11:01;98150.78;;;8.33;65.88
75146;BME280;63641;46.526;24.612;2023-02-28T10:13:36;98144.31;;;8.34;65.95
75146;BME280;63641;46.526;24.612;2023-02-28T10:16:13;98135.91;;;8.30;65.66
75146;BME280;63641;46.526;24.612;2023-02-28T10:18:59;98136.91;;;8.41;65.45
75146;BME280;63641;46.526;24.612;2023-02-28T10:22:11;98133.47;;;8.45;65.34
75146;BME280;63641;46.526;24.612;2023-02-28T10:27:12;98138.25;;;8.60;65.12
75146;BME280;63641;46.526;24.612;2023-02-28T10:29:43;98131.06;;;8.66;65.05
75146;BME280;63641;46.526;24.612;2023-02-28T10:32:15;98131.38;;;8.69;64.74
75146;BME280;63641;46.526;24.612;2023-02-28T10:34:43;98133.06;;;8.76;64.57
75146;BME280;63641;46.526;24.612;2023-02-28T10:37:11;98135.84;;;8.81;64.45
75146;BME280;63641;46.526;24.612;2023-02-28T10:39:44;98140.19;;;8.82;64.36
75146;BME280;63641;46.526;24.612;2023-02-28T10:42:26;98137.22;;;8.83;64.10
75146;BME280;63641;46.526;24.612;2023-02-28T10:45:15;98139.19;;;8.88;63.95
75146;BME280;63641;46.526;24.612;2023-02-28T10:47:57;98127.25;;;8.84;63.82
75146;BME280;63641;46.526;24.612;2023-02-28T10:52:54;98112.25;;;8.71;63.65
75146;BME280;63641;46.526;24.612;2023-02-28T10:55:24;98121.47;;;8.75;63.72
75146;BME280;63641;46.526;24.612;2023-02-28T10:57:53;98124.47;;;8.79;63.65
75146;BME280;63641;46.526;24.612;2023-02-28T11:00:25;98117.19;;;8.79;63.78
75146;BME280;63641;46.526;24.612;2023-02-28T11:02:57;98117.69;;;8.76;63.79
75146;BME280;63641;46.526;24.612;2023-02-28T11:08:17;98108.06;;;8.80;63.71
75146;BME280;63641;46.526;24.612;2023-02-28T11:10:46;98112.59;;;8.80;63.55
75146;BME280;63641;46.526;24.612;2023-02-28T11:13:18;98112.38;;;8.81;63.53
75146;BME280;63641;46.526;24.612;2023-02-28T11:15:55;98109.41;;;8.83;63.54
75146;BME280;63641;46.526;24.612;2023-02-28T11:18:29;98110.00;;;8.85;63.31
75146;BME280;63641;46.526;24.612;2023-02-28T11:20:58;98112.94;;;8.83;63.37
75146;BME280;63641;46.526;24.612;2023-02-28T11:23:28;98111.81;;;8.79;63.39
75146;BME280;63641;46.526;24.612;2023-02-28T11:26:00;98101.94;;;8.68;63.63
75146;BME280;63641;46.526;24.612;2023-02-28T11:28:33;98117.56;;;8.66;63.67
75146;BME280;63641;46.526;24.612;2023-02-28T11:33:53;98119.06;;;8.57;64.06
75146;BME280;63641;46.526;24.612;2023-02-28T11:36:30;98112.47;;;8.48;64.43
75146;BME280;63641;46.526;24.612;2023-02-28T11:39:08;98114.59;;;8.45;64.68
75146;BME280;63641;46.526;24.612;2023-02-28T11:47:02;98109.63;;;8.37;65.78
75146;BME280;63641;46.526;24.612;2023-02-28T11:55:36;98102.91;;;8.40;65.94
75146;BME280;63641;46.526;24.612;2023-02-28T12:17:43;98094.59;;;8.63;65.28
75146;BME280;63641;46.526;24.612;2023-02-28T12:25:35;98093.22;;;8.61;65.01
75146;BME280;63641;46.526;24.612;2023-02-28T12:28:10;98093.22;;;8.61;65.02
75146;BME280;63641;46.526;24.612;2023-02-28T12:30:47;98087.81;;;8.61;64.84
75146;BME280;63641;46.526;24.612;2023-02-28T12:33:17;98093.78;;;8.63;64.73
75146;BME280;63641;46.526;24.612;2023-02-28T12:35:51;98090.50;;;8.61;64.48
75146;BME280;63641;46.526;24.612;2023-02-28T12:38:25;98100.31;;;8.67;64.42
75146;BME280;63641;46.526;24.612;2023-02-28T12:41:00;98110.84;;;8.68;64.22
75146;BME280;63641;46.526;24.612;2023-02-28T12:43:42;98102.19;;;8.66;64.27
75146;BME280;63641;46.526;24.612;2023-02-28T12:51:17;98104.38;;;8.48;64.18
75146;BME280;63641;46.526;24.612;2023-02-28T12:59:48;98093.59;;;8.48;63.98
75146;BME280;63641;46.526;24.612;2023-02-28T13:10:48;98090.94;;;8.53;63.78
75146;BME280;63641;46.526;24.612;2023-02-28T13:13:24;98086.38;;;8.53;63.58
75146;BME280;63641;46.526;24.612;2023-02-28T13:16:09;98094.47;;;8.53;63.54
75146;BME280;63641;46.526;24.612;2023-02-28T13:18:38;98084.75;;;8.52;63.43
75146;BME280;63641;46.526;24.612;2023-02-28T13:21:23;98089.31;;;8.52;63.52
75146;BME280;63641;46.526;24.612;2023-02-28T13:47:36;98085.00;;;8.34;63.87
75146;BME280;63641;46.526;24.612;2023-02-28T13:58:59;98077.25;;;8.37;63.95
75146;BME280;63641;46.526;24.612;2023-02-28T14:02:34;98059.59;;;8.30;63.91
75146;BME280;63641;46.526;24.612;2023-02-28T14:04:50;98080.19;;;8.36;63.96
75146;BME280;63641;46.526;24.612;2023-02-28T14:07:27;98070.69;;;8.33;64.17
75146;BME280;63641;46.526;24.612;2023-02-28T14:10:05;98069.09;;;8.32;64.15
75146;BME280;63641;46.526;24.612;2023-02-28T14:15:55;98075.69;;;8.41;64.22
75146;BME280;63641;46.526;24.612;2023-02-28T14:18:33;98085.09;;;8.39;64.03
75146;BME280;63641;46.526;24.612;2023-02-28T14:27:15;98075.50;;;8.31;63.84
75146;BME280;63641;46.526;24.612;2023-02-28T14:30:02;98082.47;;;8.27;63.58
75146;BME280;63641;46.526;24.612;2023-02-28T14:33:00;98073.25;;;8.23;63.75
75146;BME280;63641;46.526;24.612;2023-02-28T14:38:43;98082.41;;;8.22;63.41
75146;BME280;63641;46.526;24.612;2023-02-28T14:41:17;98072.59;;;8.16;63.44
75146;BME280;63641;46.526;24.612;2023-02-28T14:43:53;98081.75;;;8.15;63.49
75146;BME280;63641;46.526;24.612;2023-02-28T14:46:21;98075.88;;;8.18;63.42
75146;BME280;63641;46.526;24.612;2023-02-28T14:48:49;98055.78;;;8.09;63.41
75146;BME280;63641;46.526;24.612;2023-02-28T14:51:21;98071.53;;;8.17;63.23
75146;BME280;63641;46.526;24.612;2023-02-28T14:53:51;98076.19;;;8.21;63.12
75146;BME280;63641;46.526;24.612;2023-02-28T14:56:27;98073.81;;;8.25;63.09
75146;BME280;63641;46.526;24.612;2023-02-28T14:58:56;98076.53;;;8.25;63.28
75146;BME280;63641;46.526;24.612;2023-02-28T15:01:24;98076.75;;;8.23;63.16
75146;BME280;63641;46.526;24.612;2023-02-28T15:04:00;98086.72;;;8.23;63.13
75146;BME280;63641;46.526;24.612;2023-02-28T15:06:28;98085.91;;;8.22;63.26
75146;BME280;63641;46.526;24.612;2023-02-28T15:09:15;98082.63;;;8.20;63.25
75146;BME280;63641;46.526;24.612;2023-02-28T15:11:46;98083.16;;;8.17;63.44
75146;BME280;63641;46.526;24.612;2023-02-28T15:14:17;98089.34;;;8.18;63.34
75146;BME280;63641;46.526;24.612;2023-02-28T15:16:48;98078.81;;;8.16;63.18
75146;BME280;63641;46.526;24.612;2023-02-28T15:19:19;98086.09;;;8.16;63.36
75146;BME280;63641;46.526;24.612;2023-02-28T15:21:50;98071.47;;;8.12;63.34
75146;BME280;63641;46.526;24.612;2023-02-28T15:27:04;98079.94;;;8.20;63.30
75146;BME280;63641;46.526;24.612;2023-02-28T15:29:46;98075.38;;;8.21;63.43
75146;BME280;63641;46.526;24.612;2023-02-28T15:32:24;98081.59;;;8.21;63.25
75146;BME280;63641;46.526;24.612;2023-02-28T15:34:52;98075.38;;;8.21;63.13
75146;BME280;63641;46.526;24.612;2023-02-28T15:40:23;98070.81;;;8.21;63.11
75146;BME280;63641;46.526;24.612;2023-02-28T15:45:41;98071.38;;;8.23;63.15
75146;BME280;63641;46.526;24.612;2023-02-28T15:48:19;98070.28;;;8.24;63.19
75146;BME280;63641;46.526;24.612;2023-02-28T15:51:18;98067.38;;;8.26;63.23
75146;BME280;63641;46.526;24.612;2023-02-28T15:54:00;98071.94;;;8.26;63.23
75146;BME280;63641;46.526;24.612;2023-02-28T15:56:30;98067.09;;;8.28;63.32
75146;BME280;63641;46.526;24.612;2023-02-28T15:59:00;98062.47;;;8.23;63.40
75146;BME280;63641;46.526;24.612;2023-02-28T16:01:38;98069.16;;;8.20;63.33
75146;BME280;63641;46.526;24.612;2023-02-28T16:04:18;98070.97;;;8.15;63.38
75146;BME280;63641;46.526;24.612;2023-02-28T16:09:24;98073.50;;;8.05;64.15